createdAt,value
2023-04-09T00:01:58.946Z,5.50
2023-04-09T00:04:43.783Z,5.44
2023-04-09T00:07:28.863Z,5.38
2023-04-09T00:10:13.647Z,5.37
2023-04-09T00:12:58.321Z,5.41
2023-04-09T00:15:43.130Z,5.51
2023-04-09T00:18:27.941Z,5.45
2023-04-09T00:21:12.846Z,5.38
2023-04-09T00:23:57.739Z,5.39
2023-04-09T00:26:42.624Z,5.22
2023-04-09T00:29:27.488Z,5.21
2023-04-09T00:32:12.325Z,5.17
2023-04-09T00:34:57.021Z,5.12
2023-04-09T00:37:42.071Z,5.20
2023-04-09T00:40:26.808Z,5.23
2023-04-09T00:43:11.677Z,5.24
2023-04-09T00:45:56.585Z,5.19
2023-04-09T00:48:41.608Z,5.12
2023-04-09T00:51:26.461Z,5.14
2023-04-09T00:54:11.322Z,5.14
2023-04-09T00:56:56.288Z,5.09
2023-04-09T01:02:29.556Z,5.14
2023-04-09T01:05:14.155Z,5.14
2023-04-09T01:07:59.044Z,5.15
2023-04-09T01:10:43.885Z,5.03
2023-04-09T01:13:28.576Z,5.00
2023-04-09T01:16:13.352Z,5.00
2023-04-09T01:18:58.315Z,4.87
2023-04-09T01:21:43.392Z,4.82
2023-04-09T01:24:27.918Z,4.84
2023-04-09T01:27:13.012Z,4.81
2023-04-09T01:29:57.924Z,4.86
2023-04-09T01:32:42.840Z,4.99
2023-04-09T01:35:27.881Z,5.04
2023-04-09T01:38:12.928Z,5.09
2023-04-09T01:40:57.842Z,5.07
2023-04-09T01:43:42.633Z,4.94
2023-04-09T01:46:27.557Z,4.99
2023-04-09T01:49:12.339Z,4.92
2023-04-09T01:51:57.315Z,4.94
2023-04-09T01:54:42.160Z,4.97
2023-04-09T01:57:27.144Z,4.90
2023-04-09T02:00:12.181Z,4.94
2023-04-09T02:02:57.235Z,4.92
2023-04-09T02:05:42.208Z,4.92
2023-04-09T02:08:27.128Z,4.85
2023-04-09T02:11:12.156Z,4.84
2023-04-09T02:13:56.702Z,4.87
2023-04-09T02:16:41.764Z,4.79
2023-04-09T02:19:26.638Z,4.83
2023-04-09T02:22:11.581Z,4.80
2023-04-09T02:24:56.526Z,4.84
2023-04-09T02:27:41.522Z,4.85
2023-04-09T02:30:26.466Z,4.84
2023-04-09T02:33:11.416Z,4.72
2023-04-09T02:35:55.983Z,4.71
2023-04-09T02:38:40.840Z,4.71
2023-04-09T02:41:25.778Z,4.67
2023-04-09T02:44:10.668Z,4.65
2023-04-09T02:46:55.558Z,4.61
2023-04-09T02:49:40.515Z,4.57
2023-04-09T02:52:25.245Z,4.56
2023-04-09T02:55:10.149Z,4.49
2023-04-09T02:57:55.109Z,4.45
2023-04-09T03:00:40.059Z,4.46
2023-04-09T03:03:24.799Z,4.53
2023-04-09T03:06:09.766Z,4.59
2023-04-09T03:08:54.927Z,4.52
2023-04-09T03:11:39.799Z,4.54
2023-04-09T03:14:24.759Z,4.52
2023-04-09T03:17:09.404Z,4.60
2023-04-09T03:19:54.535Z,4.58
2023-04-09T03:22:39.432Z,4.57
2023-04-09T03:25:24.220Z,4.48
2023-04-09T03:28:08.989Z,4.41
2023-04-09T03:30:53.608Z,4.27
2023-04-09T03:33:38.502Z,4.30
2023-04-09T03:36:23.484Z,4.20
2023-04-09T03:39:08.124Z,4.35
2023-04-09T03:41:53.171Z,4.31
2023-04-09T03:44:38.024Z,4.33
2023-04-09T03:47:22.944Z,4.20
2023-04-09T03:50:07.964Z,4.18
2023-04-09T03:52:52.851Z,4.16
2023-04-09T03:55:37.782Z,4.20
2023-04-09T03:58:22.722Z,4.08
2023-04-09T04:01:07.612Z,4.09
2023-04-09T04:03:52.624Z,4.03
2023-04-09T04:06:37.526Z,4.07
2023-04-09T04:09:22.441Z,4.02
2023-04-09T04:12:07.276Z,4.01
2023-04-09T04:14:52.479Z,4.05
2023-04-09T04:17:37.421Z,4.08
2023-04-09T04:20:22.411Z,4.08
2023-04-09T04:23:07.207Z,4.02
2023-04-09T04:25:52.117Z,3.97
2023-04-09T04:28:37.052Z,3.95
2023-04-09T04:31:22.004Z,3.91
2023-04-09T04:34:07.094Z,3.94
2023-04-09T04:36:51.758Z,3.89
2023-04-09T04:39:36.668Z,3.89
2023-04-09T04:42:21.560Z,3.82
2023-04-09T04:45:06.497Z,3.87
2023-04-09T04:47:51.260Z,3.77
2023-04-09T04:50:36.098Z,3.74
2023-04-09T04:53:20.951Z,3.70
2023-04-09T04:56:05.899Z,3.73
2023-04-09T04:58:50.995Z,3.76
2023-04-09T05:01:36.317Z,3.66
2023-04-09T05:04:21.105Z,3.66
2023-04-09T05:07:05.723Z,3.70
2023-04-09T05:09:50.582Z,3.67
2023-04-09T05:12:35.477Z,3.80
2023-04-09T05:15:20.549Z,3.76
2023-04-09T05:18:05.436Z,3.70
2023-04-09T05:20:50.244Z,3.74
2023-04-09T05:23:34.948Z,3.83
2023-04-09T05:26:19.857Z,3.67
2023-04-09T05:29:04.976Z,3.69
2023-04-09T05:31:49.843Z,3.68
2023-04-09T05:34:34.854Z,3.88
2023-04-09T05:37:19.669Z,3.71
2023-04-09T05:40:04.668Z,3.68
2023-04-09T05:42:49.561Z,3.71
2023-04-09T05:45:34.516Z,3.72
2023-04-09T05:48:19.549Z,3.62
2023-04-09T05:51:04.397Z,3.65
2023-04-09T05:53:49.391Z,3.71
2023-04-09T05:56:34.506Z,3.70
2023-04-09T05:59:19.484Z,3.71
2023-04-09T06:02:04.344Z,3.71
2023-04-09T06:04:49.217Z,3.71
2023-04-09T06:07:34.104Z,3.74
2023-04-09T06:10:19.216Z,3.68
2023-04-09T06:13:03.844Z,3.73
2023-04-09T06:15:48.782Z,3.76
2023-04-09T06:18:33.548Z,3.88
2023-04-09T06:21:18.367Z,3.97
2023-04-09T06:24:03.432Z,4.22
2023-04-09T06:26:48.161Z,4.25
2023-04-09T06:29:33.107Z,4.40
2023-04-09T06:32:17.910Z,4.54
2023-04-09T06:35:03.027Z,4.66
2023-04-09T06:37:47.929Z,4.79
2023-04-09T06:40:32.836Z,4.84
2023-04-09T06:43:17.778Z,4.83
2023-04-09T06:46:02.432Z,5.12
2023-04-09T06:48:49.790Z,5.29
2023-04-09T06:51:34.706Z,5.38
2023-04-09T06:54:19.488Z,5.24
2023-04-09T06:57:04.544Z,5.43
2023-04-09T06:59:49.402Z,5.66
2023-04-09T07:02:34.642Z,5.83
2023-04-09T07:05:19.767Z,5.69
2023-04-09T07:08:04.699Z,5.69
2023-04-09T07:10:49.418Z,6.04
2023-04-09T07:13:34.340Z,6.24
2023-04-09T07:16:19.238Z,6.17
2023-04-09T07:19:04.151Z,6.58
2023-04-09T07:21:49.245Z,6.79
2023-04-09T07:24:34.225Z,6.77
2023-04-09T07:27:19.241Z,6.82
2023-04-09T07:30:04.064Z,6.93
2023-04-09T07:32:49.233Z,6.87
2023-04-09T07:35:33.906Z,7.19
2023-04-09T07:38:18.852Z,7.00
2023-04-09T07:41:03.654Z,6.94
2023-04-09T07:43:48.439Z,7.23
2023-04-09T07:46:33.582Z,7.40
2023-04-09T07:49:18.035Z,7.21
2023-04-09T07:52:02.914Z,7.14
2023-04-09T07:54:47.993Z,7.17
2023-04-09T07:57:32.644Z,7.27
2023-04-09T08:00:17.512Z,7.44
2023-04-09T08:03:02.699Z,7.61
2023-04-09T08:05:47.605Z,7.80
2023-04-09T08:08:32.744Z,8.10
2023-04-09T08:11:17.740Z,8.22
2023-04-09T08:14:02.542Z,8.66
2023-04-09T08:16:47.788Z,8.93
2023-04-09T08:19:32.732Z,9.28
2023-04-09T08:22:17.926Z,9.27
2023-04-09T08:25:03.084Z,9.47
2023-04-09T08:27:47.908Z,9.01
2023-04-09T08:30:32.888Z,9.19
2023-04-09T08:33:17.768Z,9.39
2023-04-09T08:36:03.475Z,9.67
2023-04-09T08:38:48.583Z,9.47
2023-04-09T08:41:33.492Z,9.91
2023-04-09T08:44:18.411Z,9.78
2023-04-09T08:47:03.408Z,9.86
2023-04-09T08:49:48.514Z,9.99
2023-04-09T08:52:33.518Z,10.07
2023-04-09T08:55:18.656Z,10.02
2023-04-09T08:58:03.455Z,10.13
2023-04-09T09:00:48.044Z,10.21
2023-04-09T09:03:32.805Z,9.54
2023-04-09T09:06:17.699Z,9.64
2023-04-09T09:09:02.630Z,9.58
2023-04-09T09:11:47.622Z,9.65
2023-04-09T09:14:32.214Z,9.77
2023-04-09T09:17:17.063Z,9.49
2023-04-09T09:20:01.962Z,9.70
2023-04-09T09:22:46.828Z,9.77
2023-04-09T09:25:31.782Z,9.91
2023-04-09T09:28:16.682Z,9.75
2023-04-09T09:31:01.625Z,9.99
2023-04-09T09:33:46.803Z,10.03
2023-04-09T09:36:31.856Z,10.46
2023-04-09T09:39:16.983Z,10.32
2023-04-09T09:42:02.006Z,10.15
2023-04-09T09:44:46.767Z,9.97
2023-04-09T09:47:31.540Z,10.20
2023-04-09T09:50:16.482Z,10.09
2023-04-09T09:53:01.344Z,10.39
2023-04-09T09:55:46.054Z,10.07
2023-04-09T09:58:30.975Z,10.77
2023-04-09T10:01:16.156Z,10.48
2023-04-09T10:04:00.947Z,10.85
2023-04-09T10:06:45.991Z,11.26
2023-04-09T10:09:30.937Z,11.45
2023-04-09T10:12:15.845Z,11.30
2023-04-09T10:15:00.687Z,11.15
2023-04-09T10:17:45.699Z,11.34
2023-04-09T10:20:30.592Z,11.33
2023-04-09T10:23:15.357Z,11.35
2023-04-09T10:26:00.271Z,11.36
2023-04-09T10:28:45.191Z,11.23
2023-04-09T10:31:30.182Z,11.49
2023-04-09T10:34:14.985Z,11.81
2023-04-09T10:36:59.786Z,11.84
2023-04-09T10:39:44.676Z,12.13
2023-04-09T10:42:29.559Z,12.18
2023-04-09T10:45:14.643Z,12.58
2023-04-09T10:47:59.920Z,12.11
2023-04-09T10:50:44.643Z,11.88
2023-04-09T10:53:29.654Z,12.47
2023-04-09T10:56:14.619Z,12.28
2023-04-09T10:58:59.596Z,12.47
2023-04-09T11:01:44.668Z,12.49
2023-04-09T11:04:29.483Z,12.42
2023-04-09T11:07:14.368Z,12.46
2023-04-09T11:09:59.513Z,12.34
2023-04-09T11:12:44.306Z,12.36
2023-04-09T11:15:29.266Z,12.42
2023-04-09T11:18:14.323Z,12.39
2023-04-09T11:20:59.178Z,12.68
2023-04-09T11:23:44.167Z,12.48
2023-04-09T11:26:29.190Z,12.49
2023-04-09T11:29:14.329Z,12.35
2023-04-09T11:31:58.921Z,12.39
2023-04-09T11:34:43.930Z,12.59
2023-04-09T11:37:28.574Z,12.65
2023-04-09T11:40:13.541Z,12.83
2023-04-09T11:42:58.432Z,12.89
2023-04-09T11:45:43.417Z,13.09
2023-04-09T11:48:28.464Z,13.19
2023-04-09T11:51:13.227Z,12.79
2023-04-09T11:53:58.158Z,12.97
2023-04-09T11:56:42.907Z,13.30
2023-04-09T11:59:27.845Z,13.22
2023-04-09T12:02:12.829Z,13.52
2023-04-09T12:04:58.042Z,13.56
2023-04-09T12:07:48.902Z,13.50
2023-04-09T12:10:40.676Z,13.26
2023-04-09T12:13:25.707Z,13.37
2023-04-09T12:16:10.716Z,13.37
2023-04-09T12:18:55.532Z,13.36
2023-04-09T12:21:40.191Z,12.96
2023-04-09T12:24:25.132Z,13.46
2023-04-09T12:27:10.085Z,13.45
2023-04-09T12:29:55.229Z,13.43
2023-04-09T12:32:40.085Z,13.16
2023-04-09T12:35:25.010Z,13.53
2023-04-09T12:38:09.963Z,13.07
2023-04-09T12:40:54.922Z,13.30
2023-04-09T12:43:39.757Z,13.01
2023-04-09T12:46:24.422Z,12.79
2023-04-09T12:49:09.389Z,12.68
2023-04-09T12:51:54.167Z,13.04
2023-04-09T12:54:39.330Z,13.32
2023-04-09T12:57:24.208Z,13.22
2023-04-09T13:00:09.145Z,13.42
2023-04-09T13:02:54.182Z,13.29
2023-04-09T13:05:38.982Z,13.17
2023-04-09T13:08:23.930Z,13.38
2023-04-09T13:11:08.867Z,13.33
2023-04-09T13:13:54.286Z,13.74
2023-04-09T13:16:39.296Z,13.44
2023-04-09T13:19:24.171Z,13.18
2023-04-09T13:22:09.077Z,13.50
2023-04-09T13:24:53.961Z,13.45
2023-04-09T13:27:38.880Z,13.49
2023-04-09T13:30:23.819Z,13.43
2023-04-09T13:33:08.748Z,13.85
2023-04-09T13:35:56.909Z,13.65
2023-04-09T13:38:45.625Z,13.78
2023-04-09T13:41:31.882Z,13.69
2023-04-09T13:44:16.908Z,13.66
2023-04-09T13:47:01.804Z,13.99
2023-04-09T13:49:46.801Z,14.13
2023-04-09T13:52:31.679Z,14.09
2023-04-09T13:55:16.708Z,14.07
2023-04-09T13:58:01.713Z,14.11
2023-04-09T14:00:46.535Z,14.06
2023-04-09T14:03:31.578Z,14.07
2023-04-09T14:06:16.371Z,13.66
2023-04-09T14:09:01.278Z,13.95
2023-04-09T14:11:46.194Z,13.91
2023-04-09T14:14:31.228Z,14.18
2023-04-09T14:17:16.243Z,13.86
2023-04-09T14:20:01.372Z,14.04
2023-04-09T14:22:46.228Z,14.26
2023-04-09T14:25:31.141Z,14.04
2023-04-09T14:28:16.102Z,14.01
2023-04-09T14:31:00.773Z,13.96
2023-04-09T14:33:45.531Z,14.22
2023-04-09T14:36:30.452Z,14.50
2023-04-09T14:39:15.458Z,14.58
2023-04-09T14:42:00.252Z,14.76
2023-04-09T14:44:45.352Z,14.55
2023-04-09T14:47:29.993Z,14.53
2023-04-09T14:50:15.029Z,14.73
2023-04-09T14:52:59.800Z,14.82
2023-04-09T14:55:44.709Z,14.71
2023-04-09T14:58:29.689Z,14.87
2023-04-09T15:01:14.484Z,15.15
2023-04-09T15:03:59.486Z,15.31
2023-04-09T15:06:44.322Z,15.26
2023-04-09T15:09:28.877Z,15.31
2023-04-09T15:12:13.985Z,15.35
2023-04-09T15:14:58.765Z,14.88
2023-04-09T15:17:43.547Z,14.72
2023-04-09T15:20:28.563Z,14.60
2023-04-09T15:23:13.528Z,14.86
2023-04-09T15:25:58.428Z,14.99
2023-04-09T15:28:43.355Z,14.96
2023-04-09T15:31:28.381Z,14.81
2023-04-09T15:34:13.368Z,14.85
2023-04-09T15:36:58.292Z,14.67
2023-04-09T15:39:43.257Z,14.73
2023-04-09T15:42:28.002Z,14.46
2023-04-09T15:45:12.929Z,14.48
2023-04-09T15:47:57.770Z,14.29
2023-04-09T15:50:42.692Z,14.34
2023-04-09T15:53:27.364Z,14.17
2023-04-09T15:56:12.439Z,14.21
2023-04-09T15:58:57.119Z,14.11
2023-04-09T16:01:42.085Z,14.19
2023-04-09T16:04:27.160Z,14.07
2023-04-09T16:07:11.928Z,13.85
2023-04-09T16:09:56.805Z,13.53
2023-04-09T16:12:41.557Z,13.66
2023-04-09T16:15:26.479Z,13.52
2023-04-09T16:18:11.337Z,13.66
2023-04-09T16:20:56.277Z,13.81
2023-04-09T16:23:41.178Z,13.76
2023-04-09T16:26:26.034Z,13.67
2023-04-09T16:29:11.086Z,13.45
2023-04-09T16:31:56.122Z,13.49
2023-04-09T16:34:41.095Z,13.46
2023-04-09T16:37:25.951Z,13.38
2023-04-09T16:40:11.044Z,13.53
2023-04-09T16:42:55.631Z,13.52
2023-04-09T16:45:40.608Z,13.46
2023-04-09T16:48:25.654Z,13.46
2023-04-09T16:51:10.445Z,13.44
2023-04-09T16:53:55.404Z,13.41
2023-04-09T16:56:40.364Z,13.32
2023-04-09T16:59:25.099Z,13.19
2023-04-09T17:02:09.994Z,13.14
2023-04-09T17:04:54.862Z,13.17
2023-04-09T17:07:39.684Z,13.15
2023-04-09T17:10:24.568Z,13.04
2023-04-09T17:13:09.483Z,13.01
2023-04-09T17:15:54.341Z,12.96
2023-04-09T17:18:39.256Z,12.85
2023-04-09T17:21:24.319Z,12.82
2023-04-09T17:24:09.330Z,12.72
2023-04-09T17:26:54.082Z,12.67
2023-04-09T17:29:38.864Z,12.68
2023-04-09T17:32:23.698Z,12.67
2023-04-09T17:35:08.748Z,12.61
2023-04-09T17:37:53.435Z,12.47
2023-04-09T17:40:38.356Z,12.39
2023-04-09T17:43:23.310Z,12.34
2023-04-09T17:46:08.208Z,12.26
2023-04-09T17:48:53.313Z,12.09
2023-04-09T17:51:38.051Z,12.01
2023-04-09T17:54:22.912Z,12.01
2023-04-09T17:57:07.785Z,11.87
2023-04-09T17:59:52.837Z,11.71
2023-04-09T18:02:38.336Z,11.64
2023-04-09T18:05:23.552Z,11.63
2023-04-09T18:08:08.852Z,11.57
2023-04-09T18:11:01.662Z,11.42
2023-04-09T18:13:56.270Z,11.35
2023-04-09T18:16:41.184Z,11.35
2023-04-09T18:19:26.011Z,11.24
2023-04-09T18:22:10.930Z,11.15
2023-04-09T18:24:55.929Z,11.08
2023-04-09T18:27:40.934Z,11.05
2023-04-09T18:30:25.898Z,10.92
2023-04-09T18:33:10.898Z,10.83
2023-04-09T18:35:55.779Z,10.79
2023-04-09T18:38:40.660Z,10.73
2023-04-09T18:41:25.338Z,10.69
2023-04-09T18:44:10.018Z,10.65
2023-04-09T18:46:55.168Z,10.54
2023-04-09T18:49:39.861Z,10.43
2023-04-09T18:52:24.796Z,10.45
2023-04-09T18:55:09.558Z,10.42
2023-04-09T18:57:54.524Z,10.43
2023-04-09T19:00:39.351Z,10.32
2023-04-09T19:03:24.371Z,10.25
2023-04-09T19:06:09.155Z,10.16
2023-04-09T19:08:54.191Z,10.13
2023-04-09T19:11:39.039Z,10.06
2023-04-09T19:14:23.776Z,10.04
2023-04-09T19:17:08.879Z,9.90
2023-04-09T19:19:53.745Z,9.83
2023-04-09T19:22:38.645Z,9.81
2023-04-09T19:25:23.603Z,9.71
2023-04-09T19:28:08.443Z,9.74
2023-04-09T19:30:53.022Z,9.53
2023-04-09T19:33:37.896Z,9.36
2023-04-09T19:36:22.820Z,9.38
2023-04-09T19:39:07.633Z,9.38
2023-04-09T19:41:52.602Z,9.39
2023-04-09T19:44:37.254Z,9.43
2023-04-09T19:47:22.246Z,9.44
2023-04-09T19:50:07.159Z,9.47
2023-04-09T19:52:51.899Z,9.51
2023-04-09T19:55:36.810Z,9.41
2023-04-09T19:58:21.858Z,9.41
2023-04-09T20:01:06.848Z,9.43
2023-04-09T20:03:51.795Z,9.40
2023-04-09T20:06:36.800Z,9.30
2023-04-09T20:09:21.546Z,9.22
2023-04-09T20:12:06.471Z,9.23
2023-04-09T20:14:51.368Z,9.13
2023-04-09T20:17:36.432Z,9.04
2023-04-09T20:20:21.225Z,8.95
2023-04-09T20:23:06.153Z,8.89
2023-04-09T20:25:51.008Z,8.86
2023-04-09T20:28:36.070Z,8.85
2023-04-09T20:31:20.819Z,8.82
2023-04-09T20:34:05.461Z,8.82
2023-04-09T20:36:50.190Z,8.75
2023-04-09T20:39:34.835Z,8.77
2023-04-09T20:42:19.552Z,8.75
2023-04-09T20:45:04.336Z,8.79
2023-04-09T20:47:49.268Z,8.67
2023-04-09T20:50:34.058Z,8.60
2023-04-09T20:53:18.900Z,8.59
2023-04-09T20:56:03.864Z,8.53
2023-04-09T20:58:48.860Z,8.52
2023-04-09T21:01:34.003Z,8.39
2023-04-09T21:04:18.983Z,8.38
2023-04-09T21:07:03.851Z,8.27
2023-04-09T21:09:48.745Z,8.23
2023-04-09T21:12:33.682Z,8.24
2023-04-09T21:15:18.528Z,8.21
2023-04-09T21:18:03.382Z,8.16
2023-04-09T21:20:48.171Z,8.16
2023-04-09T21:23:33.250Z,8.11
2023-04-09T21:26:18.169Z,8.11
2023-04-09T21:29:02.970Z,8.01
2023-04-09T21:31:47.836Z,8.07
2023-04-09T21:34:32.618Z,7.99
2023-04-09T21:37:17.576Z,7.96
2023-04-09T21:40:02.377Z,7.94
2023-04-09T21:42:47.376Z,7.94
2023-04-09T21:45:32.407Z,7.98
2023-04-09T21:48:17.316Z,7.90
2023-04-09T21:51:02.360Z,7.85
2023-04-09T21:53:47.268Z,7.76
2023-04-09T21:56:31.994Z,7.76
2023-04-09T21:59:16.763Z,7.65
2023-04-09T22:02:01.770Z,7.67
2023-04-09T22:04:46.580Z,7.64
2023-04-09T22:07:31.460Z,7.62
2023-04-09T22:10:16.478Z,7.55
2023-04-09T22:13:01.404Z,7.53
2023-04-09T22:15:46.195Z,7.58
2023-04-09T22:18:30.998Z,7.47
2023-04-09T22:21:15.872Z,7.56
2023-04-09T22:24:00.716Z,7.55
2023-04-09T22:26:45.680Z,7.45
2023-04-09T22:29:30.391Z,7.45
2023-04-09T22:32:15.370Z,7.44
2023-04-09T22:35:00.326Z,7.42
2023-04-09T22:37:45.186Z,7.38
2023-04-09T22:40:30.013Z,7.31
2023-04-09T22:43:14.880Z,7.29
2023-04-09T22:45:59.795Z,7.29
2023-04-09T22:48:45.210Z,7.35
2023-04-09T22:51:30.118Z,7.27
2023-04-09T22:54:15.083Z,7.28
2023-04-09T22:56:59.994Z,7.20
2023-04-09T22:59:44.891Z,7.23
2023-04-09T23:02:29.721Z,7.18
2023-04-09T23:05:14.631Z,7.10
2023-04-09T23:07:59.450Z,7.12
2023-04-09T23:10:43.992Z,7.18
2023-04-09T23:13:28.839Z,7.08
2023-04-09T23:16:13.712Z,7.15
2023-04-09T23:18:58.676Z,7.16
2023-04-09T23:21:43.845Z,7.08
2023-04-09T23:24:28.655Z,7.06
2023-04-09T23:27:13.423Z,6.99
2023-04-09T23:29:58.464Z,6.97
2023-04-09T23:32:43.337Z,6.88
2023-04-09T23:35:28.264Z,6.98
2023-04-09T23:38:13.163Z,6.97
2023-04-09T23:40:58.200Z,6.93
2023-04-09T23:43:42.769Z,6.94
2023-04-09T23:46:27.947Z,6.89
2023-04-09T23:49:12.749Z,6.90
2023-04-09T23:51:57.526Z,6.87
2023-04-09T23:54:42.428Z,6.93
2023-04-09T23:57:27.351Z,6.80
